sensor_id;sensor_type;location;lat;lon;timestamp;temperature;humidity
3356;DHT22;1691;52.486;13.374;2023-04-03T00:02:34;1.70;91.20
3356;DHT22;1691;52.486;13.374;2023-04-03T00:05:09;1.70;91.20
3356;DHT22;1691;52.486;13.374;2023-04-03T00:08:22;1.70;91.20
3356;DHT22;1691;52.486;13.374;2023-04-03T00:11:45;1.60;91.30
3356;DHT22;1691;52.486;13.374;2023-04-03T00:14:16;1.60;91.30
3356;DHT22;1691;52.486;13.374;2023-04-03T00:17:06;1.70;91.30
3356;DHT22;1691;52.486;13.374;2023-04-03T00:19:51;1.60;91.30
3356;DHT22;1691;52.486;13.374;2023-04-03T00:22:37;1.60;91.30
3356;DHT22;1691;52.486;13.374;2023-04-03T00:25:20;1.60;91.30
3356;DHT22;1691;52.486;13.374;2023-04-03T00:28:11;1.70;91.30
3356;DHT22;1691;52.486;13.374;2023-04-03T00:31:07;1.60;91.30
3356;DHT22;1691;52.486;13.374;2023-04-03T00:34:07;1.60;91.30
3356;DHT22;1691;52.486;13.374;2023-04-03T00:36:47;1.60;91.30
3356;DHT22;1691;52.486;13.374;2023-04-03T00:39:29;1.60;91.30
3356;DHT22;1691;52.486;13.374;2023-04-03T00:42:05;1.60;91.30
3356;DHT22;1691;52.486;13.374;2023-04-03T00:48:07;1.60;91.20
3356;DHT22;1691;52.486;13.374;2023-04-03T00:50:50;1.60;91.20
3356;DHT22;1691;52.486;13.374;2023-04-03T00:54:10;1.60;91.30
3356;DHT22;1691;52.486;13.374;2023-04-03T00:56:47;1.60;91.20
3356;DHT22;1691;52.486;13.374;2023-04-03T00:59:30;1.60;91.20
3356;DHT22;1691;52.486;13.374;2023-04-03T01:02:26;1.60;91.30
3356;DHT22;1691;52.486;13.374;2023-04-03T01:05:05;1.50;91.20
3356;DHT22;1691;52.486;13.374;2023-04-03T01:07:55;1.50;91.20
3356;DHT22;1691;52.486;13.374;2023-04-03T01:10:48;1.50;91.30
3356;DHT22;1691;52.486;13.374;2023-04-03T01:13:30;1.50;91.40
3356;DHT22;1691;52.486;13.374;2023-04-03T01:16:13;1.50;91.40
3356;DHT22;1691;52.486;13.374;2023-04-03T01:19:10;1.50;91.40
3356;DHT22;1691;52.486;13.374;2023-04-03T01:22:25;1.50;91.40
3356;DHT22;1691;52.486;13.374;2023-04-03T01:26:14;1.50;91.50
3356;DHT22;1691;52.486;13.374;2023-04-03T01:29:07;1.50;91.50
3356;DHT22;1691;52.486;13.374;2023-04-03T01:31:53;1.40;91.60
3356;DHT22;1691;52.486;13.374;2023-04-03T01:38:54;1.40;91.60
3356;DHT22;1691;52.486;13.374;2023-04-03T01:41:48;1.40;91.60
3356;DHT22;1691;52.486;13.374;2023-04-03T01:44:31;1.40;91.60
3356;DHT22;1691;52.486;13.374;2023-04-03T01:47:44;1.40;91.70
3356;DHT22;1691;52.486;13.374;2023-04-03T01:50:32;1.40;91.70
3356;DHT22;1691;52.486;13.374;2023-04-03T01:53:15;1.40;91.70
3356;DHT22;1691;52.486;13.374;2023-04-03T01:56:20;1.40;91.80
3356;DHT22;1691;52.486;13.374;2023-04-03T01:59:13;1.30;91.80
3356;DHT22;1691;52.486;13.374;2023-04-03T02:02:04;1.30;91.90
3356;DHT22;1691;52.486;13.374;2023-04-03T02:12:42;1.30;92.10
3356;DHT22;1691;52.486;13.374;2023-04-03T02:15:50;1.20;92.20
3356;DHT22;1691;52.486;13.374;2023-04-03T02:19:07;1.20;92.20
3356;DHT22;1691;52.486;13.374;2023-04-03T02:21:54;1.20;92.30
3356;DHT22;1691;52.486;13.374;2023-04-03T02:24:29;1.10;92.40
3356;DHT22;1691;52.486;13.374;2023-04-03T02:27:13;1.10;92.60
3356;DHT22;1691;52.486;13.374;2023-04-03T02:29:56;1.10;92.70
3356;DHT22;1691;52.486;13.374;2023-04-03T02:32:36;1.00;92.80
3356;DHT22;1691;52.486;13.374;2023-04-03T02:35:53;1.00;92.90
3356;DHT22;1691;52.486;13.374;2023-04-03T02:38:50;1.00;93.00
3356;DHT22;1691;52.486;13.374;2023-04-03T02:41:35;1.00;93.00
3356;DHT22;1691;52.486;13.374;2023-04-03T02:44:40;1.00;93.00
3356;DHT22;1691;52.486;13.374;2023-04-03T02:47:23;1.00;93.10
3356;DHT22;1691;52.486;13.374;2023-04-03T02:50:03;0.90;93.20
3356;DHT22;1691;52.486;13.374;2023-04-03T02:52:56;0.90;93.30
3356;DHT22;1691;52.486;13.374;2023-04-03T02:56:04;0.90;93.30
3356;DHT22;1691;52.486;13.374;2023-04-03T02:58:41;0.90;93.40
3356;DHT22;1691;52.486;13.374;2023-04-03T03:01:21;0.90;93.50
3356;DHT22;1691;52.486;13.374;2023-04-03T03:04:02;0.90;93.50
3356;DHT22;1691;52.486;13.374;2023-04-03T03:07:04;0.90;93.60
3356;DHT22;1691;52.486;13.374;2023-04-03T03:10:17;0.90;93.60
3356;DHT22;1691;52.486;13.374;2023-04-03T03:12:51;0.90;93.70
3356;DHT22;1691;52.486;13.374;2023-04-03T03:15:35;0.90;93.70
3356;DHT22;1691;52.486;13.374;2023-04-03T03:18:41;0.90;93.80
3356;DHT22;1691;52.486;13.374;2023-04-03T03:21:26;0.80;93.90
3356;DHT22;1691;52.486;13.374;2023-04-03T03:24:40;0.80;93.90
3356;DHT22;1691;52.486;13.374;2023-04-03T03:27:21;0.80;94.00
3356;DHT22;1691;52.486;13.374;2023-04-03T03:30:15;0.80;94.00
3356;DHT22;1691;52.486;13.374;2023-04-03T03:33:23;0.80;94.00
3356;DHT22;1691;52.486;13.374;2023-04-03T03:36:24;0.70;94.10
3356;DHT22;1691;52.486;13.374;2023-04-03T03:39:18;0.70;94.20
3356;DHT22;1691;52.486;13.374;2023-04-03T03:42:10;0.70;94.20
3356;DHT22;1691;52.486;13.374;2023-04-03T03:44:56;0.70;94.30
3356;DHT22;1691;52.486;13.374;2023-04-03T03:47:44;0.70;94.30
3356;DHT22;1691;52.486;13.374;2023-04-03T03:50:44;0.60;94.30
3356;DHT22;1691;52.486;13.374;2023-04-03T03:53:31;0.60;94.40
3356;DHT22;1691;52.486;13.374;2023-04-03T03:56:18;0.60;94.60
3356;DHT22;1691;52.486;13.374;2023-04-03T03:58:57;0.60;94.60
3356;DHT22;1691;52.486;13.374;2023-04-03T04:01:46;0.60;94.70
3356;DHT22;1691;52.486;13.374;2023-04-03T04:04:23;0.60;94.70
3356;DHT22;1691;52.486;13.374;2023-04-03T04:07:09;0.60;94.70
3356;DHT22;1691;52.486;13.374;2023-04-03T04:09:49;0.50;94.80
3356;DHT22;1691;52.486;13.374;2023-04-03T04:12:28;0.50;94.80
3356;DHT22;1691;52.486;13.374;2023-04-03T04:15:08;0.50;94.80
3356;DHT22;1691;52.486;13.374;2023-04-03T04:17:56;0.50;94.90
3356;DHT22;1691;52.486;13.374;2023-04-03T04:20:36;0.50;94.90
3356;DHT22;1691;52.486;13.374;2023-04-03T04:23:13;0.40;95.00
3356;DHT22;1691;52.486;13.374;2023-04-03T04:25:52;0.40;95.00
3356;DHT22;1691;52.486;13.374;2023-04-03T04:28:24;0.40;95.10
3356;DHT22;1691;52.486;13.374;2023-04-03T04:30:51;0.40;95.10
3356;DHT22;1691;52.486;13.374;2023-04-03T04:33:19;0.40;95.20
3356;DHT22;1691;52.486;13.374;2023-04-03T04:35:47;0.50;95.20
3356;DHT22;1691;52.486;13.374;2023-04-03T04:38:15;0.50;95.20
3356;DHT22;1691;52.486;13.374;2023-04-03T04:40:42;0.50;95.30
3356;DHT22;1691;52.486;13.374;2023-04-03T04:43:09;0.50;95.30
3356;DHT22;1691;52.486;13.374;2023-04-03T04:45:37;0.50;95.40
3356;DHT22;1691;52.486;13.374;2023-04-03T04:48:04;0.50;95.40
3356;DHT22;1691;52.486;13.374;2023-04-03T04:50:32;0.60;95.50
3356;DHT22;1691;52.486;13.374;2023-04-03T04:52:59;0.60;95.50
3356;DHT22;1691;52.486;13.374;2023-04-03T04:55:26;0.60;95.60
3356;DHT22;1691;52.486;13.374;2023-04-03T04:57:53;0.60;95.60
3356;DHT22;1691;52.486;13.374;2023-04-03T05:00:20;0.60;95.70
3356;DHT22;1691;52.486;13.374;2023-04-03T05:02:47;0.70;95.70
3356;DHT22;1691;52.486;13.374;2023-04-03T05:05:15;0.70;95.70
3356;DHT22;1691;52.486;13.374;2023-04-03T05:07:42;0.70;95.80
3356;DHT22;1691;52.486;13.374;2023-04-03T05:10:09;0.80;95.80
3356;DHT22;1691;52.486;13.374;2023-04-03T05:12:36;0.90;95.90
3356;DHT22;1691;52.486;13.374;2023-04-03T05:15:04;1.00;96.00
3356;DHT22;1691;52.486;13.374;2023-04-03T05:17:31;1.20;96.20
3356;DHT22;1691;52.486;13.374;2023-04-03T05:19:58;1.40;96.30
3356;DHT22;1691;52.486;13.374;2023-04-03T05:22:25;1.80;96.50
3356;DHT22;1691;52.486;13.374;2023-04-03T05:24:52;2.30;96.70
3356;DHT22;1691;52.486;13.374;2023-04-03T05:27:19;3.00;96.80
3356;DHT22;1691;52.486;13.374;2023-04-03T05:29:46;3.60;96.50
3356;DHT22;1691;52.486;13.374;2023-04-03T05:32:13;4.30;96.30
3356;DHT22;1691;52.486;13.374;2023-04-03T05:34:40;4.90;95.50
3356;DHT22;1691;52.486;13.374;2023-04-03T05:37:07;5.30;94.90
3356;DHT22;1691;52.486;13.374;2023-04-03T05:39:35;5.90;94.70
3356;DHT22;1691;52.486;13.374;2023-04-03T05:42:02;6.50;94.00
3356;DHT22;1691;52.486;13.374;2023-04-03T05:44:29;7.00;93.10
3356;DHT22;1691;52.486;13.374;2023-04-03T05:46:56;7.50;92.20
3356;DHT22;1691;52.486;13.374;2023-04-03T05:49:23;7.70;91.00
3356;DHT22;1691;52.486;13.374;2023-04-03T05:51:50;7.80;90.20
3356;DHT22;1691;52.486;13.374;2023-04-03T05:54:23;8.10;89.90
3356;DHT22;1691;52.486;13.374;2023-04-03T05:56:51;8.50;88.80
3356;DHT22;1691;52.486;13.374;2023-04-03T05:59:20;8.90;87.30
3356;DHT22;1691;52.486;13.374;2023-04-03T06:01:48;9.10;84.50
3356;DHT22;1691;52.486;13.374;2023-04-03T06:04:15;9.50;83.90
3356;DHT22;1691;52.486;13.374;2023-04-03T06:09:15;10.30;81.10
3356;DHT22;1691;52.486;13.374;2023-04-03T06:11:43;10.60;79.70
3356;DHT22;1691;52.486;13.374;2023-04-03T06:14:11;11.00;78.70
3356;DHT22;1691;52.486;13.374;2023-04-03T06:16:38;11.30;76.50
3356;DHT22;1691;52.486;13.374;2023-04-03T06:19:07;11.70;75.70
3356;DHT22;1691;52.486;13.374;2023-04-03T06:21:35;12.20;73.90
3356;DHT22;1691;52.486;13.374;2023-04-03T06:24:06;12.70;72.20
3356;DHT22;1691;52.486;13.374;2023-04-03T06:26:34;13.10;70.90
3356;DHT22;1691;52.486;13.374;2023-04-03T06:29:01;13.40;69.20
3356;DHT22;1691;52.486;13.374;2023-04-03T06:31:29;13.60;67.20
3356;DHT22;1691;52.486;13.374;2023-04-03T06:33:57;13.50;63.30
3356;DHT22;1691;52.486;13.374;2023-04-03T06:36:24;13.10;61.80
3356;DHT22;1691;52.486;13.374;2023-04-03T06:38:52;12.60;61.20
3356;DHT22;1691;52.486;13.374;2023-04-03T06:41:19;12.20;61.60
3356;DHT22;1691;52.486;13.374;2023-04-03T06:43:46;12.30;61.60
3356;DHT22;1691;52.486;13.374;2023-04-03T06:46:16;12.60;62.00
3356;DHT22;1691;52.486;13.374;2023-04-03T06:48:44;13.00;59.60
3356;DHT22;1691;52.486;13.374;2023-04-03T06:51:21;13.20;58.70
3356;DHT22;1691;52.486;13.374;2023-04-03T06:53:54;13.40;58.90
3356;DHT22;1691;52.486;13.374;2023-04-03T06:56:23;13.30;58.10
3356;DHT22;1691;52.486;13.374;2023-04-03T06:58:50;13.30;56.90
3356;DHT22;1691;52.486;13.374;2023-04-03T07:01:18;13.30;56.70
3356;DHT22;1691;52.486;13.374;2023-04-03T07:03:46;13.70;56.50
3356;DHT22;1691;52.486;13.374;2023-04-03T07:06:16;13.80;54.50
3356;DHT22;1691;52.486;13.374;2023-04-03T07:08:44;13.70;54.50
3356;DHT22;1691;52.486;13.374;2023-04-03T07:11:12;13.80;53.90
3356;DHT22;1691;52.486;13.374;2023-04-03T07:13:39;14.20;53.90
3356;DHT22;1691;52.486;13.374;2023-04-03T07:16:08;14.40;52.20
3356;DHT22;1691;52.486;13.374;2023-04-03T07:18:35;14.10;50.40
3356;DHT22;1691;52.486;13.374;2023-04-03T07:21:04;13.90;50.40
3356;DHT22;1691;52.486;13.374;2023-04-03T07:23:31;13.90;49.30
3356;DHT22;1691;52.486;13.374;2023-04-03T07:25:58;13.90;49.00
3356;DHT22;1691;52.486;13.374;2023-04-03T07:28:25;14.10;47.80
3356;DHT22;1691;52.486;13.374;2023-04-03T07:31:02;13.80;46.50
3356;DHT22;1691;52.486;13.374;2023-04-03T07:33:32;13.30;46.90
3356;DHT22;1691;52.486;13.374;2023-04-03T07:36:00;12.90;47.80
3356;DHT22;1691;52.486;13.374;2023-04-03T07:38:28;12.50;48.10
3356;DHT22;1691;52.486;13.374;2023-04-03T07:40:55;12.20;49.00
3356;DHT22;1691;52.486;13.374;2023-04-03T07:43:23;12.00;49.20
3356;DHT22;1691;52.486;13.374;2023-04-03T07:45:51;11.10;47.60
3356;DHT22;1691;52.486;13.374;2023-04-03T07:48:21;10.10;50.10
3356;DHT22;1691;52.486;13.374;2023-04-03T07:50:49;9.80;50.90
3356;DHT22;1691;52.486;13.374;2023-04-03T07:53:16;9.30;50.50
3356;DHT22;1691;52.486;13.374;2023-04-03T07:55:47;8.60;51.60
3356;DHT22;1691;52.486;13.374;2023-04-03T07:58:17;8.20;52.20
3356;DHT22;1691;52.486;13.374;2023-04-03T08:00:46;7.80;53.00
3356;DHT22;1691;52.486;13.374;2023-04-03T08:03:14;7.30;53.80
3356;DHT22;1691;52.486;13.374;2023-04-03T08:05:45;7.10;54.70
3356;DHT22;1691;52.486;13.374;2023-04-03T08:08:20;7.10;55.00
3356;DHT22;1691;52.486;13.374;2023-04-03T08:10:53;7.10;55.30
3356;DHT22;1691;52.486;13.374;2023-04-03T08:13:21;7.00;55.50
3356;DHT22;1691;52.486;13.374;2023-04-03T08:15:48;7.00;56.20
3356;DHT22;1691;52.486;13.374;2023-04-03T08:18:16;7.30;55.90
3356;DHT22;1691;52.486;13.374;2023-04-03T08:20:44;7.20;54.90
3356;DHT22;1691;52.486;13.374;2023-04-03T08:23:12;7.10;55.80
3356;DHT22;1691;52.486;13.374;2023-04-03T08:25:40;7.10;55.60
3356;DHT22;1691;52.486;13.374;2023-04-03T08:28:09;7.00;55.60
3356;DHT22;1691;52.486;13.374;2023-04-03T08:30:41;6.70;56.10
3356;DHT22;1691;52.486;13.374;2023-04-03T08:33:09;6.40;55.90
3356;DHT22;1691;52.486;13.374;2023-04-03T08:35:41;6.10;56.70
3356;DHT22;1691;52.486;13.374;2023-04-03T08:38:10;5.80;57.20
3356;DHT22;1691;52.486;13.374;2023-04-03T08:40:38;5.60;57.30
3356;DHT22;1691;52.486;13.374;2023-04-03T08:43:23;5.50;58.20
3356;DHT22;1691;52.486;13.374;2023-04-03T08:46:05;5.60;58.70
3356;DHT22;1691;52.486;13.374;2023-04-03T08:48:39;5.70;58.90
3356;DHT22;1691;52.486;13.374;2023-04-03T08:51:16;5.70;58.70
3356;DHT22;1691;52.486;13.374;2023-04-03T08:53:58;5.70;58.50
3356;DHT22;1691;52.486;13.374;2023-04-03T08:56:30;5.70;58.90
3356;DHT22;1691;52.486;13.374;2023-04-03T08:59:05;5.70;59.00
3356;DHT22;1691;52.486;13.374;2023-04-03T09:01:38;5.60;59.00
3356;DHT22;1691;52.486;13.374;2023-04-03T09:04:14;5.60;59.00
3356;DHT22;1691;52.486;13.374;2023-04-03T09:06:50;5.60;59.30
3356;DHT22;1691;52.486;13.374;2023-04-03T09:09:40;5.60;59.30
3356;DHT22;1691;52.486;13.374;2023-04-03T09:12:32;5.60;59.50
3356;DHT22;1691;52.486;13.374;2023-04-03T09:18:19;8.30;57.60
3356;DHT22;1691;52.486;13.374;2023-04-03T09:23:46;11.10;52.10
3356;DHT22;1691;52.486;13.374;2023-04-03T09:28:55;14.10;47.80
3356;DHT22;1691;52.486;13.374;2023-04-03T09:31:29;14.30;45.60
3356;DHT22;1691;52.486;13.374;2023-04-03T09:34:06;13.60;45.00
3356;DHT22;1691;52.486;13.374;2023-04-03T09:37:00;12.20;44.50
3356;DHT22;1691;52.486;13.374;2023-04-03T09:39:52;10.70;44.50
3356;DHT22;1691;52.486;13.374;2023-04-03T09:42:22;10.20;46.10
3356;DHT22;1691;52.486;13.374;2023-04-03T09:44:56;10.00;46.70
3356;DHT22;1691;52.486;13.374;2023-04-03T09:47:31;10.20;46.40
3356;DHT22;1691;52.486;13.374;2023-04-03T09:52:46;9.90;45.60
3356;DHT22;1691;52.486;13.374;2023-04-03T09:55:16;9.60;46.20
3356;DHT22;1691;52.486;13.374;2023-04-03T09:57:45;9.20;46.90
3356;DHT22;1691;52.486;13.374;2023-04-03T10:00:24;8.80;46.70
3356;DHT22;1691;52.486;13.374;2023-04-03T10:02:57;8.20;47.30
3356;DHT22;1691;52.486;13.374;2023-04-03T10:05:41;7.80;48.90
3356;DHT22;1691;52.486;13.374;2023-04-03T10:10:43;7.30;50.50
3356;DHT22;1691;52.486;13.374;2023-04-03T10:13:17;7.20;51.00
3356;DHT22;1691;52.486;13.374;2023-04-03T10:16:12;7.00;51.20
3356;DHT22;1691;52.486;13.374;2023-04-03T10:19:01;6.90;51.80
3356;DHT22;1691;52.486;13.374;2023-04-03T10:21:54;7.00;52.40
3356;DHT22;1691;52.486;13.374;2023-04-03T10:27:30;7.60;53.00
3356;DHT22;1691;52.486;13.374;2023-04-03T10:30:21;7.80;53.00
3356;DHT22;1691;52.486;13.374;2023-04-03T10:45:08;7.80;51.30
3356;DHT22;1691;52.486;13.374;2023-04-03T10:48:18;7.90;51.80
3356;DHT22;1691;52.486;13.374;2023-04-03T10:54:58;8.10;51.80
3356;DHT22;1691;52.486;13.374;2023-04-03T10:57:05;8.10;50.40
3356;DHT22;1691;52.486;13.374;2023-04-03T10:59:45;8.00;50.50
3356;DHT22;1691;52.486;13.374;2023-04-03T11:05:15;7.80;50.20
3356;DHT22;1691;52.486;13.374;2023-04-03T11:07:50;7.80;50.10
3356;DHT22;1691;52.486;13.374;2023-04-03T11:10:42;7.70;50.20
3356;DHT22;1691;52.486;13.374;2023-04-03T11:16:27;7.50;50.50
3356;DHT22;1691;52.486;13.374;2023-04-03T11:21:54;7.60;51.50
3356;DHT22;1691;52.486;13.374;2023-04-03T11:24:31;7.70;51.80
3356;DHT22;1691;52.486;13.374;2023-04-03T11:27:00;7.80;51.20
3356;DHT22;1691;52.486;13.374;2023-04-03T11:29:40;7.70;50.70
3356;DHT22;1691;52.486;13.374;2023-04-03T11:32:48;7.60;50.10
3356;DHT22;1691;52.486;13.374;2023-04-03T11:35:21;7.50;50.20
3356;DHT22;1691;52.486;13.374;2023-04-03T11:37:52;7.40;51.00
3356;DHT22;1691;52.486;13.374;2023-04-03T11:40:24;7.40;51.20
3356;DHT22;1691;52.486;13.374;2023-04-03T11:46:22;7.30;51.50
3356;DHT22;1691;52.486;13.374;2023-04-03T12:13:41;7.50;52.20
3356;DHT22;1691;52.486;13.374;2023-04-03T12:16:29;7.40;52.90
3356;DHT22;1691;52.486;13.374;2023-04-03T12:40:36;7.30;53.80
3356;DHT22;1691;52.486;13.374;2023-04-03T12:43:30;7.20;54.50
3356;DHT22;1691;52.486;13.374;2023-04-03T12:51:38;7.30;55.30
3356;DHT22;1691;52.486;13.374;2023-04-03T12:54:30;7.40;54.90
3356;DHT22;1691;52.486;13.374;2023-04-03T12:57:18;7.30;54.20
3356;DHT22;1691;52.486;13.374;2023-04-03T12:59:47;7.30;53.80
3356;DHT22;1691;52.486;13.374;2023-04-03T13:02:31;7.30;53.80
3356;DHT22;1691;52.486;13.374;2023-04-03T13:05:07;7.30;54.10
3356;DHT22;1691;52.486;13.374;2023-04-03T13:07:37;7.30;53.60
3356;DHT22;1691;52.486;13.374;2023-04-03T13:12:35;7.50;54.40
3356;DHT22;1691;52.486;13.374;2023-04-03T13:15:30;7.50;53.90
3356;DHT22;1691;52.486;13.374;2023-04-03T13:17:57;7.40;53.90
3356;DHT22;1691;52.486;13.374;2023-04-03T13:20:34;7.40;53.80
3356;DHT22;1691;52.486;13.374;2023-04-03T13:23:06;7.20;53.50
3356;DHT22;1691;52.486;13.374;2023-04-03T13:25:40;7.20;54.10
3356;DHT22;1691;52.486;13.374;2023-04-03T13:28:13;7.10;53.80
3356;DHT22;1691;52.486;13.374;2023-04-03T13:33:26;7.00;54.50
3356;DHT22;1691;52.486;13.374;2023-04-03T13:36:19;7.00;54.70
3356;DHT22;1691;52.486;13.374;2023-04-03T13:41:49;7.10;55.30
3356;DHT22;1691;52.486;13.374;2023-04-03T13:44:38;7.10;55.80
3356;DHT22;1691;52.486;13.374;2023-04-03T13:50:03;7.20;55.90
3356;DHT22;1691;52.486;13.374;2023-04-03T13:52:54;7.20;56.10
3356;DHT22;1691;52.486;13.374;2023-04-03T13:55:30;7.20;56.20
3356;DHT22;1691;52.486;13.374;2023-04-03T14:03:31;7.00;55.90
3356;DHT22;1691;52.486;13.374;2023-04-03T14:06:13;6.90;56.10
3356;DHT22;1691;52.486;13.374;2023-04-03T14:08:46;6.90;56.40
3356;DHT22;1691;52.486;13.374;2023-04-03T14:11:22;6.80;56.10
3356;DHT22;1691;52.486;13.374;2023-04-03T14:13:51;6.80;56.20
3356;DHT22;1691;52.486;13.374;2023-04-03T14:16:21;6.80;56.50
3356;DHT22;1691;52.486;13.374;2023-04-03T14:18:50;6.90;56.70
3356;DHT22;1691;52.486;13.374;2023-04-03T14:21:19;6.90;57.00
3356;DHT22;1691;52.486;13.374;2023-04-03T14:23:48;6.90;57.00
3356;DHT22;1691;52.486;13.374;2023-04-03T14:26:18;6.90;56.70
3356;DHT22;1691;52.486;13.374;2023-04-03T14:28:51;7.00;56.90
3356;DHT22;1691;52.486;13.374;2023-04-03T14:31:20;7.00;56.90
3356;DHT22;1691;52.486;13.374;2023-04-03T14:33:48;7.00;56.70
3356;DHT22;1691;52.486;13.374;2023-04-03T14:36:17;6.90;56.90
3356;DHT22;1691;52.486;13.374;2023-04-03T14:38:48;6.80;56.90
3356;DHT22;1691;52.486;13.374;2023-04-03T14:41:19;6.70;57.20
3356;DHT22;1691;52.486;13.374;2023-04-03T14:43:48;6.70;57.30
3356;DHT22;1691;52.486;13.374;2023-04-03T14:46:18;6.70;57.60
3356;DHT22;1691;52.486;13.374;2023-04-03T14:48:52;6.90;58.10
3356;DHT22;1691;52.486;13.374;2023-04-03T14:51:19;7.10;57.80
3356;DHT22;1691;52.486;13.374;2023-04-03T14:53:46;7.10;57.30
3356;DHT22;1691;52.486;13.374;2023-04-03T14:56:23;7.00;57.20
3356;DHT22;1691;52.486;13.374;2023-04-03T14:58:58;6.90;57.60
3356;DHT22;1691;52.486;13.374;2023-04-03T15:01:30;6.90;58.20
3356;DHT22;1691;52.486;13.374;2023-04-03T15:03:57;7.00;58.50
3356;DHT22;1691;52.486;13.374;2023-04-03T15:06:24;7.00;58.40
3356;DHT22;1691;52.486;13.374;2023-04-03T15:08:52;6.90;58.20
3356;DHT22;1691;52.486;13.374;2023-04-03T15:11:19;6.70;58.70
3356;DHT22;1691;52.486;13.374;2023-04-03T15:13:46;6.60;59.20
3356;DHT22;1691;52.486;13.374;2023-04-03T15:16:18;6.50;59.90
3356;DHT22;1691;52.486;13.374;2023-04-03T15:18:47;6.50;60.10
3356;DHT22;1691;52.486;13.374;2023-04-03T15:21:14;6.40;60.50
3356;DHT22;1691;52.486;13.374;2023-04-03T15:23:41;6.40;60.80
3356;DHT22;1691;52.486;13.374;2023-04-03T15:26:09;6.30;61.40
3356;DHT22;1691;52.486;13.374;2023-04-03T15:28:41;6.20;61.60
3356;DHT22;1691;52.486;13.374;2023-04-03T15:31:09;6.20;61.80
3356;DHT22;1691;52.486;13.374;2023-04-03T15:33:36;6.00;62.10
3356;DHT22;1691;52.486;13.374;2023-04-03T15:36:04;5.90;62.50
3356;DHT22;1691;52.486;13.374;2023-04-03T15:38:42;5.90;63.30
3356;DHT22;1691;52.486;13.374;2023-04-03T15:41:09;5.90;63.60
3356;DHT22;1691;52.486;13.374;2023-04-03T15:43:36;5.90;63.80
3356;DHT22;1691;52.486;13.374;2023-04-03T15:46:03;5.90;63.60
3356;DHT22;1691;52.486;13.374;2023-04-03T15:48:31;5.80;63.60
3356;DHT22;1691;52.486;13.374;2023-04-03T15:50:58;5.70;64.00
3356;DHT22;1691;52.486;13.374;2023-04-03T15:53:26;5.70;64.40
3356;DHT22;1691;52.486;13.374;2023-04-03T15:55:53;5.80;65.10
3356;DHT22;1691;52.486;13.374;2023-04-03T15:58:20;5.80;65.10
3356;DHT22;1691;52.486;13.374;2023-04-03T16:00:48;5.80;64.90
3356;DHT22;1691;52.486;13.374;2023-04-03T16:03:18;5.80;64.90
3356;DHT22;1691;52.486;13.374;2023-04-03T16:05:47;5.80;64.70
3356;DHT22;1691;52.486;13.374;2023-04-03T16:08:14;5.80;64.40
3356;DHT22;1691;52.486;13.374;2023-04-03T16:10:42;5.70;64.00
3356;DHT22;1691;52.486;13.374;2023-04-03T16:13:11;5.60;64.60
3356;DHT22;1691;52.486;13.374;2023-04-03T16:15:39;5.40;64.70
3356;DHT22;1691;52.486;13.374;2023-04-03T16:18:07;5.40;64.90
3356;DHT22;1691;52.486;13.374;2023-04-03T16:20:34;5.30;65.30
3356;DHT22;1691;52.486;13.374;2023-04-03T16:23:02;5.20;65.70
3356;DHT22;1691;52.486;13.374;2023-04-03T16:25:29;5.20;65.90
3356;DHT22;1691;52.486;13.374;2023-04-03T16:27:57;5.30;66.20
3356;DHT22;1691;52.486;13.374;2023-04-03T16:30:24;5.30;66.60
3356;DHT22;1691;52.486;13.374;2023-04-03T16:32:52;5.50;66.60
3356;DHT22;1691;52.486;13.374;2023-04-03T16:35:20;5.60;66.40
3356;DHT22;1691;52.486;13.374;2023-04-03T16:37:47;5.70;66.40
3356;DHT22;1691;52.486;13.374;2023-04-03T16:40:14;5.80;66.40
3356;DHT22;1691;52.486;13.374;2023-04-03T16:42:41;5.90;66.10
3356;DHT22;1691;52.486;13.374;2023-04-03T16:45:08;5.90;65.90
3356;DHT22;1691;52.486;13.374;2023-04-03T16:47:36;6.00;65.70
3356;DHT22;1691;52.486;13.374;2023-04-03T16:50:03;6.00;65.70
3356;DHT22;1691;52.486;13.374;2023-04-03T16:52:31;6.00;65.90
3356;DHT22;1691;52.486;13.374;2023-04-03T16:54:58;6.00;65.90
3356;DHT22;1691;52.486;13.374;2023-04-03T16:57:25;6.00;65.90
3356;DHT22;1691;52.486;13.374;2023-04-03T16:59:53;5.90;65.90
3356;DHT22;1691;52.486;13.374;2023-04-03T17:02:21;5.90;66.20
3356;DHT22;1691;52.486;13.374;2023-04-03T17:04:52;5.90;66.10
3356;DHT22;1691;52.486;13.374;2023-04-03T17:07:21;5.70;66.10
3356;DHT22;1691;52.486;13.374;2023-04-03T17:09:48;5.70;66.20
3356;DHT22;1691;52.486;13.374;2023-04-03T17:12:16;5.60;66.40
3356;DHT22;1691;52.486;13.374;2023-04-03T17:14:43;5.50;66.60
3356;DHT22;1691;52.486;13.374;2023-04-03T17:17:11;5.40;67.00
3356;DHT22;1691;52.486;13.374;2023-04-03T17:19:38;5.40;67.40
3356;DHT22;1691;52.486;13.374;2023-04-03T17:22:07;5.30;67.00
3356;DHT22;1691;52.486;13.374;2023-04-03T17:24:35;5.20;67.20
3356;DHT22;1691;52.486;13.374;2023-04-03T17:27:03;5.20;67.50
3356;DHT22;1691;52.486;13.374;2023-04-03T17:29:30;5.20;67.70
3356;DHT22;1691;52.486;13.374;2023-04-03T17:31:57;5.10;68.10
3356;DHT22;1691;52.486;13.374;2023-04-03T17:34:24;5.10;68.50
3356;DHT22;1691;52.486;13.374;2023-04-03T17:36:51;5.10;68.70
3356;DHT22;1691;52.486;13.374;2023-04-03T17:39:18;5.10;68.70
3356;DHT22;1691;52.486;13.374;2023-04-03T17:41:45;5.10;69.00
3356;DHT22;1691;52.486;13.374;2023-04-03T17:44:13;5.10;69.20
3356;DHT22;1691;52.486;13.374;2023-04-03T17:46:40;5.10;69.40
3356;DHT22;1691;52.486;13.374;2023-04-03T17:49:07;5.10;69.60
3356;DHT22;1691;52.486;13.374;2023-04-03T17:51:39;5.00;69.80
3356;DHT22;1691;52.486;13.374;2023-04-03T17:54:07;5.00;70.30
3356;DHT22;1691;52.486;13.374;2023-04-03T17:56:34;5.00;70.50
3356;DHT22;1691;52.486;13.374;2023-04-03T17:59:01;5.00;70.90
3356;DHT22;1691;52.486;13.374;2023-04-03T18:01:33;5.00;71.10
3356;DHT22;1691;52.486;13.374;2023-04-03T18:04:03;5.00;71.30
3356;DHT22;1691;52.486;13.374;2023-04-03T18:06:43;5.00;71.30
3356;DHT22;1691;52.486;13.374;2023-04-03T18:09:25;5.00;71.60
3356;DHT22;1691;52.486;13.374;2023-04-03T18:11:56;5.00;72.00
3356;DHT22;1691;52.486;13.374;2023-04-03T18:14:24;4.90;72.20
3356;DHT22;1691;52.486;13.374;2023-04-03T18:16:53;4.90;72.40
3356;DHT22;1691;52.486;13.374;2023-04-03T18:19:23;4.90;72.60
3356;DHT22;1691;52.486;13.374;2023-04-03T18:21:56;4.80;72.60
3356;DHT22;1691;52.486;13.374;2023-04-03T18:24:24;4.80;72.60
3356;DHT22;1691;52.486;13.374;2023-04-03T18:27:01;4.80;72.60
3356;DHT22;1691;52.486;13.374;2023-04-03T18:29:31;4.70;72.80
3356;DHT22;1691;52.486;13.374;2023-04-03T18:32:00;4.70;72.90
3356;DHT22;1691;52.486;13.374;2023-04-03T18:34:30;4.70;73.10
3356;DHT22;1691;52.486;13.374;2023-04-03T18:36:58;4.60;73.30
3356;DHT22;1691;52.486;13.374;2023-04-03T18:39:25;4.60;73.50
3356;DHT22;1691;52.486;13.374;2023-04-03T18:41:54;4.60;73.50
3356;DHT22;1691;52.486;13.374;2023-04-03T18:44:23;4.60;73.70
3356;DHT22;1691;52.486;13.374;2023-04-03T18:46:52;4.60;73.90
3356;DHT22;1691;52.486;13.374;2023-04-03T18:49:22;4.50;73.90
3356;DHT22;1691;52.486;13.374;2023-04-03T18:51:49;4.50;73.90
3356;DHT22;1691;52.486;13.374;2023-04-03T18:54:16;4.40;74.10
3356;DHT22;1691;52.486;13.374;2023-04-03T18:56:43;4.30;74.40
3356;DHT22;1691;52.486;13.374;2023-04-03T18:59:10;4.20;74.80
3356;DHT22;1691;52.486;13.374;2023-04-03T19:01:37;4.10;75.00
3356;DHT22;1691;52.486;13.374;2023-04-03T19:04:06;4.10;75.40
3356;DHT22;1691;52.486;13.374;2023-04-03T19:06:34;4.10;75.70